sensor_id;sensor_type;location;lat;lon;timestamp;temperature;humidity
41142;SHT31;63666;52.284;20.890;2023-08-08T00:00:17;23.60;53.92
41142;SHT31;63666;52.284;20.890;2023-08-08T00:03:15;23.68;53.64
41142;SHT31;63666;52.284;20.890;2023-08-08T00:05:52;23.58;53.82
41142;SHT31;63666;52.284;20.890;2023-08-08T00:08:31;23.43;53.99
41142;SHT31;63666;52.284;20.890;2023-08-08T00:11:07;23.44;53.77
41142;SHT31;63666;52.284;20.890;2023-08-08T00:13:43;23.46;53.70
41142;SHT31;63666;52.284;20.890;2023-08-08T00:16:20;23.42;53.79
41142;SHT31;63666;52.284;20.890;2023-08-08T00:18:59;23.37;53.66
41142;SHT31;63666;52.284;20.890;2023-08-08T00:21:39;23.36;53.73
41142;SHT31;63666;52.284;20.890;2023-08-08T00:24:18;23.44;53.36
41142;SHT31;63666;52.284;20.890;2023-08-08T00:26:55;23.42;53.50
41142;SHT31;63666;52.284;20.890;2023-08-08T00:29:29;23.45;53.45
41142;SHT31;63666;52.284;20.890;2023-08-08T00:32:05;23.45;53.34
41142;SHT31;63666;52.284;20.890;2023-08-08T00:34:40;23.40;53.40
41142;SHT31;63666;52.284;20.890;2023-08-08T00:37:18;23.50;53.21
41142;SHT31;63666;52.284;20.890;2023-08-08T00:39:51;23.40;53.07
41142;SHT31;63666;52.284;20.890;2023-08-08T00:42:31;23.26;53.40
41142;SHT31;63666;52.284;20.890;2023-08-08T00:45:07;23.32;53.13
41142;SHT31;63666;52.284;20.890;2023-08-08T00:47:47;23.18;53.20
41142;SHT31;63666;52.284;20.890;2023-08-08T00:50:26;23.25;52.94
41142;SHT31;63666;52.284;20.890;2023-08-08T00:53:00;23.19;53.02
41142;SHT31;63666;52.284;20.890;2023-08-08T00:55:38;23.23;52.78
41142;SHT31;63666;52.284;20.890;2023-08-08T00:58:11;23.26;52.79
41142;SHT31;63666;52.284;20.890;2023-08-08T01:00:47;23.35;52.52
41142;SHT31;63666;52.284;20.890;2023-08-08T01:03:24;23.28;52.62
41142;SHT31;63666;52.284;20.890;2023-08-08T01:06:01;23.24;52.64
41142;SHT31;63666;52.284;20.890;2023-08-08T01:08:45;23.24;52.69
41142;SHT31;63666;52.284;20.890;2023-08-08T01:11:25;23.21;52.63
41142;SHT31;63666;52.284;20.890;2023-08-08T01:14:01;23.19;52.64
41142;SHT31;63666;52.284;20.890;2023-08-08T01:16:36;23.19;52.52
41142;SHT31;63666;52.284;20.890;2023-08-08T01:19:11;23.20;52.49
41142;SHT31;63666;52.284;20.890;2023-08-08T01:22:01;23.20;52.41
41142;SHT31;63666;52.284;20.890;2023-08-08T01:24:45;23.20;52.39
41142;SHT31;63666;52.284;20.890;2023-08-08T01:27:21;23.26;52.31
41142;SHT31;63666;52.284;20.890;2023-08-08T01:29:55;23.27;52.33
41142;SHT31;63666;52.284;20.890;2023-08-08T01:32:30;23.29;52.25
41142;SHT31;63666;52.284;20.890;2023-08-08T01:35:07;23.21;52.36
41142;SHT31;63666;52.284;20.890;2023-08-08T01:37:42;23.17;52.44
41142;SHT31;63666;52.284;20.890;2023-08-08T01:40:29;23.10;52.52
41142;SHT31;63666;52.284;20.890;2023-08-08T01:43:08;23.06;52.46
41142;SHT31;63666;52.284;20.890;2023-08-08T01:45:48;23.07;52.47
41142;SHT31;63666;52.284;20.890;2023-08-08T01:48:27;23.13;52.24
41142;SHT31;63666;52.284;20.890;2023-08-08T01:51:01;23.18;52.17
41142;SHT31;63666;52.284;20.890;2023-08-08T01:53:38;23.09;52.33
41142;SHT31;63666;52.284;20.890;2023-08-08T01:56:16;23.07;52.35
41142;SHT31;63666;52.284;20.890;2023-08-08T01:58:52;23.16;52.15
41142;SHT31;63666;52.284;20.890;2023-08-08T02:01:29;23.06;52.32
41142;SHT31;63666;52.284;20.890;2023-08-08T02:04:07;23.06;52.32
41142;SHT31;63666;52.284;20.890;2023-08-08T02:06:41;23.15;52.20
41142;SHT31;63666;52.284;20.890;2023-08-08T02:09:15;23.24;52.00
41142;SHT31;63666;52.284;20.890;2023-08-08T02:11:50;23.16;52.11
41142;SHT31;63666;52.284;20.890;2023-08-08T02:14:28;23.04;52.30
41142;SHT31;63666;52.284;20.890;2023-08-08T02:17:02;23.02;52.33
41142;SHT31;63666;52.284;20.890;2023-08-08T02:19:39;23.04;52.17
41142;SHT31;63666;52.284;20.890;2023-08-08T02:22:16;23.03;52.19
41142;SHT31;63666;52.284;20.890;2023-08-08T02:24:51;22.99;52.17
41142;SHT31;63666;52.284;20.890;2023-08-08T02:27:31;22.97;52.17
41142;SHT31;63666;52.284;20.890;2023-08-08T02:30:14;22.99;52.10
41142;SHT31;63666;52.284;20.890;2023-08-08T02:32:48;22.92;52.15
41142;SHT31;63666;52.284;20.890;2023-08-08T02:35:22;22.93;52.06
41142;SHT31;63666;52.284;20.890;2023-08-08T02:37:59;22.90;51.97
41142;SHT31;63666;52.284;20.890;2023-08-08T02:40:34;22.90;51.99
41142;SHT31;63666;52.284;20.890;2023-08-08T02:43:09;22.99;51.81
41142;SHT31;63666;52.284;20.890;2023-08-08T02:45:47;23.04;51.71
41142;SHT31;63666;52.284;20.890;2023-08-08T02:48:22;23.03;51.60
41142;SHT31;63666;52.284;20.890;2023-08-08T02:51:00;22.93;51.78
41142;SHT31;63666;52.284;20.890;2023-08-08T02:53:39;22.84;51.86
41142;SHT31;63666;52.284;20.890;2023-08-08T02:56:15;22.91;51.81
41142;SHT31;63666;52.284;20.890;2023-08-08T02:58:54;22.93;51.62
41142;SHT31;63666;52.284;20.890;2023-08-08T03:01:28;22.97;51.67
41142;SHT31;63666;52.284;20.890;2023-08-08T03:04:02;22.99;51.45
41142;SHT31;63666;52.284;20.890;2023-08-08T03:06:37;22.86;51.66
41142;SHT31;63666;52.284;20.890;2023-08-08T03:09:12;22.83;51.71
41142;SHT31;63666;52.284;20.890;2023-08-08T03:11:49;22.84;51.56
41142;SHT31;63666;52.284;20.890;2023-08-08T03:14:23;22.85;51.56
41142;SHT31;63666;52.284;20.890;2023-08-08T03:16:58;22.92;51.41
41142;SHT31;63666;52.284;20.890;2023-08-08T03:19:36;22.89;51.50
41142;SHT31;63666;52.284;20.890;2023-08-08T03:22:12;22.88;51.38
41142;SHT31;63666;52.284;20.890;2023-08-08T03:24:51;22.81;51.52
41142;SHT31;63666;52.284;20.890;2023-08-08T03:27:25;22.87;51.41
41142;SHT31;63666;52.284;20.890;2023-08-08T03:30:05;23.00;51.25
41142;SHT31;63666;52.284;20.890;2023-08-08T03:32:49;22.91;51.28
41142;SHT31;63666;52.284;20.890;2023-08-08T03:35:26;22.91;51.33
41142;SHT31;63666;52.284;20.890;2023-08-08T03:38:03;22.83;51.51
41142;SHT31;63666;52.284;20.890;2023-08-08T03:40:39;22.85;51.32
41142;SHT31;63666;52.284;20.890;2023-08-08T03:43:15;22.85;51.33
41142;SHT31;63666;52.284;20.890;2023-08-08T03:45:54;22.91;51.22
41142;SHT31;63666;52.284;20.890;2023-08-08T03:48:29;22.94;51.15
41142;SHT31;63666;52.284;20.890;2023-08-08T03:51:10;22.95;51.14
41142;SHT31;63666;52.284;20.890;2023-08-08T03:53:45;22.86;51.24
41142;SHT31;63666;52.284;20.890;2023-08-08T03:56:20;22.89;51.27
41142;SHT31;63666;52.284;20.890;2023-08-08T03:58:54;22.86;51.26
41142;SHT31;63666;52.284;20.890;2023-08-08T04:01:33;22.84;51.28
41142;SHT31;63666;52.284;20.890;2023-08-08T04:04:10;22.87;51.24
41142;SHT31;63666;52.284;20.890;2023-08-08T04:06:48;22.95;51.09
41142;SHT31;63666;52.284;20.890;2023-08-08T04:09:26;22.98;51.07
41142;SHT31;63666;52.284;20.890;2023-08-08T04:12:02;22.92;51.08
41142;SHT31;63666;52.284;20.890;2023-08-08T04:14:39;22.89;51.11
41142;SHT31;63666;52.284;20.890;2023-08-08T04:17:16;22.92;51.15
41142;SHT31;63666;52.284;20.890;2023-08-08T04:19:50;22.89;51.02
41142;SHT31;63666;52.284;20.890;2023-08-08T04:22:26;22.82;51.26
41142;SHT31;63666;52.284;20.890;2023-08-08T04:25:01;22.94;51.08
41142;SHT31;63666;52.284;20.890;2023-08-08T04:27:40;22.87;51.12
41142;SHT31;63666;52.284;20.890;2023-08-08T04:30:17;22.96;50.97
41142;SHT31;63666;52.284;20.890;2023-08-08T04:32:59;22.91;51.08
41142;SHT31;63666;52.284;20.890;2023-08-08T04:35:35;22.97;50.93
41142;SHT31;63666;52.284;20.890;2023-08-08T04:38:10;22.94;51.06
41142;SHT31;63666;52.284;20.890;2023-08-08T04:40:47;23.00;50.94
41142;SHT31;63666;52.284;20.890;2023-08-08T04:43:24;22.91;51.05
41142;SHT31;63666;52.284;20.890;2023-08-08T04:45:59;22.96;51.06
41142;SHT31;63666;52.284;20.890;2023-08-08T04:48:40;22.78;51.19
41142;SHT31;63666;52.284;20.890;2023-08-08T04:51:18;22.85;51.21
41142;SHT31;63666;52.284;20.890;2023-08-08T04:53:56;22.86;51.11
41142;SHT31;63666;52.284;20.890;2023-08-08T04:56:33;22.90;51.03
41142;SHT31;63666;52.284;20.890;2023-08-08T04:59:13;22.90;51.01
41142;SHT31;63666;52.284;20.890;2023-08-08T05:01:56;22.94;50.92
41142;SHT31;63666;52.284;20.890;2023-08-08T05:04:30;22.90;50.98
41142;SHT31;63666;52.284;20.890;2023-08-08T05:07:05;22.91;50.89
41142;SHT31;63666;52.284;20.890;2023-08-08T05:09:47;22.89;50.87
41142;SHT31;63666;52.284;20.890;2023-08-08T05:12:23;22.65;51.22
41142;SHT31;63666;52.284;20.890;2023-08-08T05:15:04;22.71;51.15
41142;SHT31;63666;52.284;20.890;2023-08-08T05:17:40;22.87;50.83
41142;SHT31;63666;52.284;20.890;2023-08-08T05:20:19;22.85;50.80
41142;SHT31;63666;52.284;20.890;2023-08-08T05:22:57;22.71;50.93
41142;SHT31;63666;52.284;20.890;2023-08-08T05:25:38;22.74;50.94
41142;SHT31;63666;52.284;20.890;2023-08-08T05:28:12;22.79;50.75
41142;SHT31;63666;52.284;20.890;2023-08-08T05:30:48;22.81;50.72
41142;SHT31;63666;52.284;20.890;2023-08-08T05:33:23;22.79;50.78
41142;SHT31;63666;52.284;20.890;2023-08-08T05:36:01;22.80;50.68
41142;SHT31;63666;52.284;20.890;2023-08-08T05:38:41;22.73;50.72
41142;SHT31;63666;52.284;20.890;2023-08-08T05:41:17;22.78;50.70
41142;SHT31;63666;52.284;20.890;2023-08-08T05:44:01;22.66;50.79
41142;SHT31;63666;52.284;20.890;2023-08-08T05:46:38;22.64;50.79
41142;SHT31;63666;52.284;20.890;2023-08-08T05:49:13;22.75;50.51
41142;SHT31;63666;52.284;20.890;2023-08-08T05:51:54;22.65;50.61
41142;SHT31;63666;52.284;20.890;2023-08-08T05:54:34;22.79;50.50
41142;SHT31;63666;52.284;20.890;2023-08-08T05:57:10;22.81;50.38
41142;SHT31;63666;52.284;20.890;2023-08-08T05:59:48;22.77;50.50
41142;SHT31;63666;52.284;20.890;2023-08-08T06:02:23;22.78;50.58
41142;SHT31;63666;52.284;20.890;2023-08-08T06:04:57;22.79;50.45
41142;SHT31;63666;52.284;20.890;2023-08-08T06:07:36;22.71;50.66
41142;SHT31;63666;52.284;20.890;2023-08-08T06:10:11;22.80;50.55
41142;SHT31;63666;52.284;20.890;2023-08-08T06:12:45;22.82;50.46
41142;SHT31;63666;52.284;20.890;2023-08-08T06:15:26;22.78;50.58
41142;SHT31;63666;52.284;20.890;2023-08-08T06:18:00;22.73;50.56
41142;SHT31;63666;52.284;20.890;2023-08-08T06:20:39;22.76;50.56
41142;SHT31;63666;52.284;20.890;2023-08-08T06:23:15;22.66;50.73
41142;SHT31;63666;52.284;20.890;2023-08-08T06:25:54;22.62;50.61
41142;SHT31;63666;52.284;20.890;2023-08-08T06:28:33;22.63;50.47
41142;SHT31;63666;52.284;20.890;2023-08-08T06:31:12;22.51;50.39
41142;SHT31;63666;52.284;20.890;2023-08-08T06:33:49;22.42;50.48
41142;SHT31;63666;52.284;20.890;2023-08-08T06:36:31;22.50;50.24
41142;SHT31;63666;52.284;20.890;2023-08-08T06:39:11;22.57;50.65
41142;SHT31;63666;52.284;20.890;2023-08-08T06:41:50;22.49;50.71
41142;SHT31;63666;52.284;20.890;2023-08-08T06:44:33;22.50;50.30
41142;SHT31;63666;52.284;20.890;2023-08-08T06:47:14;22.56;50.33
41142;SHT31;63666;52.284;20.890;2023-08-08T06:49:47;22.48;50.53
41142;SHT31;63666;52.284;20.890;2023-08-08T06:52:21;22.51;50.65
41142;SHT31;63666;52.284;20.890;2023-08-08T06:55:02;22.71;51.11
41142;SHT31;63666;52.284;20.890;2023-08-08T06:57:43;22.82;50.37
41142;SHT31;63666;52.284;20.890;2023-08-08T07:00:20;22.96;50.97
41142;SHT31;63666;52.284;20.890;2023-08-08T07:02:57;23.06;50.13
41142;SHT31;63666;52.284;20.890;2023-08-08T07:05:32;23.26;50.46
41142;SHT31;63666;52.284;20.890;2023-08-08T07:08:07;23.35;49.73
41142;SHT31;63666;52.284;20.890;2023-08-08T07:10:40;23.40;49.54
41142;SHT31;63666;52.284;20.890;2023-08-08T07:13:14;23.45;49.52
41142;SHT31;63666;52.284;20.890;2023-08-08T07:15:52;23.46;49.23
41142;SHT31;63666;52.284;20.890;2023-08-08T07:18:25;23.52;49.44
41142;SHT31;63666;52.284;20.890;2023-08-08T07:21:01;23.48;48.90
41142;SHT31;63666;52.284;20.890;2023-08-08T07:23:37;23.35;48.74
41142;SHT31;63666;52.284;20.890;2023-08-08T07:26:12;23.24;48.93
41142;SHT31;63666;52.284;20.890;2023-08-08T07:28:46;23.32;49.73
41142;SHT31;63666;52.284;20.890;2023-08-08T07:31:23;23.48;48.92
41142;SHT31;63666;52.284;20.890;2023-08-08T07:33:57;23.49;48.60
41142;SHT31;63666;52.284;20.890;2023-08-08T07:36:32;23.50;48.58
41142;SHT31;63666;52.284;20.890;2023-08-08T07:39:10;23.51;48.41
41142;SHT31;63666;52.284;20.890;2023-08-08T07:41:53;23.61;48.30
41142;SHT31;63666;52.284;20.890;2023-08-08T07:44:30;23.58;48.18
41142;SHT31;63666;52.284;20.890;2023-08-08T07:47:09;23.56;48.12
41142;SHT31;63666;52.284;20.890;2023-08-08T07:49:51;23.55;48.10
41142;SHT31;63666;52.284;20.890;2023-08-08T07:52:28;23.64;47.90
41142;SHT31;63666;52.284;20.890;2023-08-08T07:55:05;23.60;47.84
41142;SHT31;63666;52.284;20.890;2023-08-08T07:57:46;23.73;47.48
41142;SHT31;63666;52.284;20.890;2023-08-08T08:00:23;23.63;47.44
41142;SHT31;63666;52.284;20.890;2023-08-08T08:03:01;23.59;47.62
41142;SHT31;63666;52.284;20.890;2023-08-08T08:05:38;23.58;47.52
41142;SHT31;63666;52.284;20.890;2023-08-08T08:08:12;23.64;47.51
41142;SHT31;63666;52.284;20.890;2023-08-08T08:10:46;23.66;47.41
41142;SHT31;63666;52.284;20.890;2023-08-08T08:13:25;23.64;47.35
41142;SHT31;63666;52.284;20.890;2023-08-08T08:16:04;23.58;47.40
41142;SHT31;63666;52.284;20.890;2023-08-08T08:18:42;23.55;47.14
41142;SHT31;63666;52.284;20.890;2023-08-08T08:21:19;23.48;47.42
41142;SHT31;63666;52.284;20.890;2023-08-08T08:23:54;23.41;47.37
41142;SHT31;63666;52.284;20.890;2023-08-08T08:26:31;23.21;47.68
41142;SHT31;63666;52.284;20.890;2023-08-08T08:29:07;23.09;47.97
41142;SHT31;63666;52.284;20.890;2023-08-08T08:31:46;23.00;48.28
41142;SHT31;63666;52.284;20.890;2023-08-08T08:34:27;23.32;47.97
41142;SHT31;63666;52.284;20.890;2023-08-08T08:37:06;23.38;47.75
41142;SHT31;63666;52.284;20.890;2023-08-08T08:39:43;23.55;47.51
41142;SHT31;63666;52.284;20.890;2023-08-08T08:42:18;23.60;46.98
41142;SHT31;63666;52.284;20.890;2023-08-08T08:44:52;23.57;47.02
41142;SHT31;63666;52.284;20.890;2023-08-08T08:47:30;23.61;46.80
41142;SHT31;63666;52.284;20.890;2023-08-08T08:50:12;23.63;46.71
41142;SHT31;63666;52.284;20.890;2023-08-08T08:52:47;23.62;46.73
41142;SHT31;63666;52.284;20.890;2023-08-08T08:55:27;23.59;46.84
41142;SHT31;63666;52.284;20.890;2023-08-08T08:58:01;23.63;46.72
41142;SHT31;63666;52.284;20.890;2023-08-08T09:00:40;23.66;46.62
41142;SHT31;63666;52.284;20.890;2023-08-08T09:03:15;23.62;46.66
41142;SHT31;63666;52.284;20.890;2023-08-08T09:05:54;23.61;46.63
41142;SHT31;63666;52.284;20.890;2023-08-08T09:08:28;23.71;46.55
41142;SHT31;63666;52.284;20.890;2023-08-08T09:11:04;23.67;45.93
41142;SHT31;63666;52.284;20.890;2023-08-08T09:13:38;23.58;45.71
41142;SHT31;63666;52.284;20.890;2023-08-08T09:16:13;23.60;46.39
41142;SHT31;63666;52.284;20.890;2023-08-08T09:18:51;23.78;46.09
41142;SHT31;63666;52.284;20.890;2023-08-08T09:21:26;23.88;46.06
41142;SHT31;63666;52.284;20.890;2023-08-08T09:24:06;24.01;46.06
41142;SHT31;63666;52.284;20.890;2023-08-08T09:26:44;23.97;46.08
41142;SHT31;63666;52.284;20.890;2023-08-08T09:29:18;23.98;46.20
41142;SHT31;63666;52.284;20.890;2023-08-08T09:31:54;24.05;45.98
41142;SHT31;63666;52.284;20.890;2023-08-08T09:34:29;24.01;46.10
41142;SHT31;63666;52.284;20.890;2023-08-08T09:37:02;24.04;45.87
41142;SHT31;63666;52.284;20.890;2023-08-08T09:39:37;24.03;45.88
41142;SHT31;63666;52.284;20.890;2023-08-08T09:42:13;24.08;45.70
41142;SHT31;63666;52.284;20.890;2023-08-08T09:44:50;24.13;45.73
41142;SHT31;63666;52.284;20.890;2023-08-08T09:47:26;24.08;45.60
41142;SHT31;63666;52.284;20.890;2023-08-08T09:50:02;24.12;45.51
41142;SHT31;63666;52.284;20.890;2023-08-08T09:52:43;24.07;45.57
41142;SHT31;63666;52.284;20.890;2023-08-08T09:55:20;24.14;45.40
41142;SHT31;63666;52.284;20.890;2023-08-08T09:57:55;24.20;45.26
41142;SHT31;63666;52.284;20.890;2023-08-08T10:00:33;24.11;45.36
41142;SHT31;63666;52.284;20.890;2023-08-08T10:03:18;24.19;45.32
41142;SHT31;63666;52.284;20.890;2023-08-08T10:05:52;24.16;45.37
41142;SHT31;63666;52.284;20.890;2023-08-08T10:08:29;24.31;44.87
41142;SHT31;63666;52.284;20.890;2023-08-08T10:11:06;24.33;45.00
41142;SHT31;63666;52.284;20.890;2023-08-08T10:13:47;24.42;44.92
41142;SHT31;63666;52.284;20.890;2023-08-08T10:16:31;24.49;45.03
41142;SHT31;63666;52.284;20.890;2023-08-08T10:19:05;24.40;45.21
41142;SHT31;63666;52.284;20.890;2023-08-08T10:21:41;24.36;45.26
41142;SHT31;63666;52.284;20.890;2023-08-08T10:24:19;24.36;45.31
41142;SHT31;63666;52.284;20.890;2023-08-08T10:26:53;24.43;45.36
41142;SHT31;63666;52.284;20.890;2023-08-08T10:29:33;24.31;45.36
41142;SHT31;63666;52.284;20.890;2023-08-08T10:32:21;24.08;45.87
41142;SHT31;63666;52.284;20.890;2023-08-08T10:34:59;24.00;46.42
41142;SHT31;63666;52.284;20.890;2023-08-08T10:37:39;23.97;46.27
41142;SHT31;63666;52.284;20.890;2023-08-08T10:40:31;23.88;46.58
41142;SHT31;63666;52.284;20.890;2023-08-08T10:43:10;23.89;46.41
41142;SHT31;63666;52.284;20.890;2023-08-08T10:45:46;23.87;46.19
41142;SHT31;63666;52.284;20.890;2023-08-08T10:48:50;23.88;45.51
41142;SHT31;63666;52.284;20.890;2023-08-08T10:51:25;23.86;45.95
41142;SHT31;63666;52.284;20.890;2023-08-08T10:54:09;23.87;45.17
41142;SHT31;63666;52.284;20.890;2023-08-08T10:56:50;23.86;45.42
41142;SHT31;63666;52.284;20.890;2023-08-08T10:59:25;23.83;45.72
41142;SHT31;63666;52.284;20.890;2023-08-08T11:02:08;23.87;44.05
41142;SHT31;63666;52.284;20.890;2023-08-08T11:04:45;23.81;45.15
41142;SHT31;63666;52.284;20.890;2023-08-08T11:07:20;23.73;46.09
41142;SHT31;63666;52.284;20.890;2023-08-08T11:09:53;23.72;45.04
41142;SHT31;63666;52.284;20.890;2023-08-08T11:12:31;23.75;45.05
41142;SHT31;63666;52.284;20.890;2023-08-08T11:15:05;23.72;45.87
41142;SHT31;63666;52.284;20.890;2023-08-08T11:17:45;23.72;44.60
41142;SHT31;63666;52.284;20.890;2023-08-08T11:20:22;23.75;45.46
41142;SHT31;63666;52.284;20.890;2023-08-08T11:22:59;23.74;44.23
41142;SHT31;63666;52.284;20.890;2023-08-08T11:25:41;23.72;45.42
41142;SHT31;63666;52.284;20.890;2023-08-08T11:28:36;23.61;43.82
41142;SHT31;63666;52.284;20.890;2023-08-08T11:31:09;23.59;44.05
41142;SHT31;63666;52.284;20.890;2023-08-08T11:33:47;23.56;44.40
41142;SHT31;63666;52.284;20.890;2023-08-08T11:36:24;23.52;44.34
41142;SHT31;63666;52.284;20.890;2023-08-08T11:38:57;23.54;44.68
41142;SHT31;63666;52.284;20.890;2023-08-08T11:41:39;23.62;44.45
41142;SHT31;63666;52.284;20.890;2023-08-08T11:44:14;23.52;44.06
41142;SHT31;63666;52.284;20.890;2023-08-08T11:46:49;23.49;44.40
41142;SHT31;63666;52.284;20.890;2023-08-08T11:49:22;23.53;45.18
41142;SHT31;63666;52.284;20.890;2023-08-08T11:51:58;23.54;45.22
41142;SHT31;63666;52.284;20.890;2023-08-08T11:54:36;23.56;45.27
41142;SHT31;63666;52.284;20.890;2023-08-08T11:57:12;23.56;45.26
41142;SHT31;63666;52.284;20.890;2023-08-08T11:59:50;23.59;44.59
41142;SHT31;63666;52.284;20.890;2023-08-08T12:02:27;23.57;45.20
41142;SHT31;63666;52.284;20.890;2023-08-08T12:05:06;23.60;44.77
41142;SHT31;63666;52.284;20.890;2023-08-08T12:07:47;23.63;45.11
41142;SHT31;63666;52.284;20.890;2023-08-08T12:10:22;23.62;45.41
41142;SHT31;63666;52.284;20.890;2023-08-08T12:12:58;23.68;44.40
41142;SHT31;63666;52.284;20.890;2023-08-08T12:15:36;23.64;45.15
41142;SHT31;63666;52.284;20.890;2023-08-08T12:18:10;23.66;43.27
41142;SHT31;63666;52.284;20.890;2023-08-08T12:20:47;23.69;44.74
41142;SHT31;63666;52.284;20.890;2023-08-08T12:23:21;23.66;43.68
41142;SHT31;63666;52.284;20.890;2023-08-08T12:25:56;23.62;44.33
41142;SHT31;63666;52.284;20.890;2023-08-08T12:28:30;23.61;43.81
41142;SHT31;63666;52.284;20.890;2023-08-08T12:31:05;23.61;44.22
41142;SHT31;63666;52.284;20.890;2023-08-08T12:33:38;23.56;44.54
41142;SHT31;63666;52.284;20.890;2023-08-08T12:36:12;23.58;44.53
41142;SHT31;63666;52.284;20.890;2023-08-08T12:38:46;23.56;44.74
41142;SHT31;63666;52.284;20.890;2023-08-08T12:41:20;23.58;44.55
41142;SHT31;63666;52.284;20.890;2023-08-08T12:43:54;23.62;44.26
41142;SHT31;63666;52.284;20.890;2023-08-08T12:46:28;23.69;43.04
41142;SHT31;63666;52.284;20.890;2023-08-08T12:49:04;23.70;43.17
41142;SHT31;63666;52.284;20.890;2023-08-08T12:51:38;23.67;43.43
41142;SHT31;63666;52.284;20.890;2023-08-08T12:54:11;23.64;41.99
41142;SHT31;63666;52.284;20.890;2023-08-08T12:56:49;23.62;43.68
41142;SHT31;63666;52.284;20.890;2023-08-08T12:59:22;23.54;44.50
41142;SHT31;63666;52.284;20.890;2023-08-08T13:01:55;23.56;44.36
41142;SHT31;63666;52.284;20.890;2023-08-08T13:04:29;23.55;44.90
41142;SHT31;63666;52.284;20.890;2023-08-08T13:07:03;23.54;44.99
41142;SHT31;63666;52.284;20.890;2023-08-08T13:09:39;23.61;43.61
41142;SHT31;63666;52.284;20.890;2023-08-08T13:12:13;23.60;44.41
41142;SHT31;63666;52.284;20.890;2023-08-08T13:14:50;23.59;45.05
41142;SHT31;63666;52.284;20.890;2023-08-08T13:17:26;23.57;44.74
41142;SHT31;63666;52.284;20.890;2023-08-08T13:20:00;23.60;43.60
41142;SHT31;63666;52.284;20.890;2023-08-08T13:22:35;23.58;44.58
41142;SHT31;63666;52.284;20.890;2023-08-08T13:25:09;23.63;42.83
41142;SHT31;63666;52.284;20.890;2023-08-08T13:27:44;23.66;43.14
41142;SHT31;63666;52.284;20.890;2023-08-08T13:30:21;23.60;43.78
41142;SHT31;63666;52.284;20.890;2023-08-08T13:32:56;23.61;42.92
41142;SHT31;63666;52.284;20.890;2023-08-08T13:35:31;23.66;43.41
41142;SHT31;63666;52.284;20.890;2023-08-08T13:38:04;23.57;44.54
41142;SHT31;63666;52.284;20.890;2023-08-08T13:40:43;23.63;43.82
41142;SHT31;63666;52.284;20.890;2023-08-08T13:43:16;23.61;44.22
41142;SHT31;63666;52.284;20.890;2023-08-08T13:45:50;23.67;44.92
41142;SHT31;63666;52.284;20.890;2023-08-08T13:48:24;23.71;45.01
41142;SHT31;63666;52.284;20.890;2023-08-08T13:50:58;23.71;45.17
41142;SHT31;63666;52.284;20.890;2023-08-08T13:53:34;23.76;45.00
41142;SHT31;63666;52.284;20.890;2023-08-08T13:56:07;23.71;45.31
41142;SHT31;63666;52.284;20.890;2023-08-08T13:58:40;23.74;45.50
41142;SHT31;63666;52.284;20.890;2023-08-08T14:01:16;23.77;45.77
41142;SHT31;63666;52.284;20.890;2023-08-08T14:03:49;23.80;46.09
41142;SHT31;63666;52.284;20.890;2023-08-08T14:06:24;23.83;46.06
41142;SHT31;63666;52.284;20.890;2023-08-08T14:08:58;23.85;46.60
41142;SHT31;63666;52.284;20.890;2023-08-08T14:11:32;23.88;47.06
41142;SHT31;63666;52.284;20.890;2023-08-08T14:14:05;23.81;47.65
41142;SHT31;63666;52.284;20.890;2023-08-08T14:16:39;23.78;47.91
41142;SHT31;63666;52.284;20.890;2023-08-08T14:19:13;23.79;47.96
41142;SHT31;63666;52.284;20.890;2023-08-08T14:21:47;23.84;47.77
41142;SHT31;63666;52.284;20.890;2023-08-08T14:24:21;23.85;47.77
41142;SHT31;63666;52.284;20.890;2023-08-08T14:26:57;23.85;47.65
41142;SHT31;63666;52.284;20.890;2023-08-08T14:29:30;23.83;47.59
41142;SHT31;63666;52.284;20.890;2023-08-08T14:32:05;23.87;47.38
41142;SHT31;63666;52.284;20.890;2023-08-08T14:34:41;23.90;47.05
41142;SHT31;63666;52.284;20.890;2023-08-08T14:37:17;23.92;46.94
41142;SHT31;63666;52.284;20.890;2023-08-08T14:39:51;23.95;47.07
41142;SHT31;63666;52.284;20.890;2023-08-08T14:42:27;24.00;46.99
41142;SHT31;63666;52.284;20.890;2023-08-08T14:45:03;24.05;46.79
41142;SHT31;63666;52.284;20.890;2023-08-08T14:47:41;24.07;46.64
41142;SHT31;63666;52.284;20.890;2023-08-08T14:50:17;24.09;46.54
41142;SHT31;63666;52.284;20.890;2023-08-08T14:52:54;24.11;46.48
41142;SHT31;63666;52.284;20.890;2023-08-08T14:55:28;24.12;46.50
41142;SHT31;63666;52.284;20.890;2023-08-08T14:58:04;24.11;46.49
41142;SHT31;63666;52.284;20.890;2023-08-08T15:00:38;24.04;46.79
41142;SHT31;63666;52.284;20.890;2023-08-08T15:03:13;23.99;46.81
41142;SHT31;63666;52.284;20.890;2023-08-08T15:05:49;23.99;46.83
41142;SHT31;63666;52.284;20.890;2023-08-08T15:08:24;24.10;46.49
41142;SHT31;63666;52.284;20.890;2023-08-08T15:10:57;24.13;46.26
41142;SHT31;63666;52.284;20.890;2023-08-08T15:13:30;24.12;46.37
41142;SHT31;63666;52.284;20.890;2023-08-08T15:16:05;24.08;46.43
41142;SHT31;63666;52.284;20.890;2023-08-08T15:18:39;24.11;46.25
41142;SHT31;63666;52.284;20.890;2023-08-08T15:21:15;24.05;46.53
41142;SHT31;63666;52.284;20.890;2023-08-08T15:23:51;24.10;46.32
41142;SHT31;63666;52.284;20.890;2023-08-08T15:26:33;24.17;46.04
41142;SHT31;63666;52.284;20.890;2023-08-08T15:29:12;24.14;46.04
41142;SHT31;63666;52.284;20.890;2023-08-08T15:31:56;24.10;46.19
41142;SHT31;63666;52.284;20.890;2023-08-08T15:34:30;24.11;45.74
41142;SHT31;63666;52.284;20.890;2023-08-08T15:37:05;24.02;46.50
41142;SHT31;63666;52.284;20.890;2023-08-08T15:39:40;24.01;46.10
41142;SHT31;63666;52.284;20.890;2023-08-08T15:42:18;23.99;46.42
41142;SHT31;63666;52.284;20.890;2023-08-08T15:44:53;23.98;46.45
41142;SHT31;63666;52.284;20.890;2023-08-08T15:47:28;24.00;46.34
41142;SHT31;63666;52.284;20.890;2023-08-08T15:50:05;23.97;46.39
41142;SHT31;63666;52.284;20.890;2023-08-08T15:52:41;23.95;46.45
